sensor_id;sensor_type;location;lat;lon;timestamp;P1;durP1;ratioP1;P2;durP2;ratioP2
71288;SDS011;59068;52.502;9.860;2022-12-10T00:03:45;37.05;;;20.13;;
71288;SDS011;59068;52.502;9.860;2022-12-10T00:06:12;39.97;;;19.75;;
71288;SDS011;59068;52.502;9.860;2022-12-10T00:08:38;34.50;;;18.58;;
71288;SDS011;59068;52.502;9.860;2022-12-10T00:11:05;37.77;;;18.17;;
71288;SDS011;59068;52.502;9.860;2022-12-10T00:13:33;33.95;;;17.13;;
71288;SDS011;59068;52.502;9.860;2022-12-10T00:16:00;38.08;;;19.60;;
71288;SDS011;59068;52.502;9.860;2022-12-10T00:18:28;35.78;;;18.08;;
71288;SDS011;59068;52.502;9.860;2022-12-10T00:20:55;37.72;;;17.25;;
71288;SDS011;59068;52.502;9.860;2022-12-10T00:23:21;35.30;;;17.75;;
71288;SDS011;59068;52.502;9.860;2022-12-10T00:25:47;34.53;;;17.95;;
71288;SDS011;59068;52.502;9.860;2022-12-10T00:28:14;31.23;;;16.87;;
71288;SDS011;59068;52.502;9.860;2022-12-10T00:30:40;31.38;;;16.23;;
71288;SDS011;59068;52.502;9.860;2022-12-10T00:33:06;30.93;;;16.20;;
71288;SDS011;59068;52.502;9.860;2022-12-10T00:35:34;31.15;;;16.42;;
71288;SDS011;59068;52.502;9.860;2022-12-10T00:38:02;33.70;;;17.27;;
71288;SDS011;59068;52.502;9.860;2022-12-10T00:40:29;32.15;;;16.17;;
71288;SDS011;59068;52.502;9.860;2022-12-10T00:42:55;32.97;;;16.27;;
71288;SDS011;59068;52.502;9.860;2022-12-10T00:45:22;30.73;;;15.87;;
71288;SDS011;59068;52.502;9.860;2022-12-10T00:47:49;36.28;;;17.55;;
71288;SDS011;59068;52.502;9.860;2022-12-10T00:50:16;30.80;;;15.68;;
71288;SDS011;59068;52.502;9.860;2022-12-10T00:52:41;31.98;;;16.58;;
71288;SDS011;59068;52.502;9.860;2022-12-10T00:55:08;33.33;;;16.60;;
71288;SDS011;59068;52.502;9.860;2022-12-10T00:57:33;32.38;;;16.58;;
71288;SDS011;59068;52.502;9.860;2022-12-10T00:59:59;30.83;;;15.27;;
71288;SDS011;59068;52.502;9.860;2022-12-10T01:02:25;32.73;;;15.73;;
71288;SDS011;59068;52.502;9.860;2022-12-10T01:04:53;29.03;;;14.80;;
71288;SDS011;59068;52.502;9.860;2022-12-10T01:07:19;39.47;;;17.92;;
71288;SDS011;59068;52.502;9.860;2022-12-10T01:09:45;32.20;;;15.07;;
71288;SDS011;59068;52.502;9.860;2022-12-10T01:12:11;31.17;;;15.52;;
71288;SDS011;59068;52.502;9.860;2022-12-10T01:14:38;31.05;;;15.73;;
71288;SDS011;59068;52.502;9.860;2022-12-10T01:17:05;35.58;;;16.63;;
71288;SDS011;59068;52.502;9.860;2022-12-10T01:19:32;35.63;;;16.40;;
71288;SDS011;59068;52.502;9.860;2022-12-10T01:21:59;29.83;;;16.00;;
71288;SDS011;59068;52.502;9.860;2022-12-10T01:24:26;34.15;;;15.95;;
71288;SDS011;59068;52.502;9.860;2022-12-10T01:26:53;27.27;;;13.60;;
71288;SDS011;59068;52.502;9.860;2022-12-10T01:29:23;28.83;;;14.02;;
71288;SDS011;59068;52.502;9.860;2022-12-10T01:31:51;27.40;;;14.75;;
71288;SDS011;59068;52.502;9.860;2022-12-10T01:34:17;23.67;;;12.73;;
71288;SDS011;59068;52.502;9.860;2022-12-10T01:36:44;30.33;;;13.90;;
71288;SDS011;59068;52.502;9.860;2022-12-10T01:39:13;29.53;;;13.77;;
71288;SDS011;59068;52.502;9.860;2022-12-10T01:41:45;25.85;;;12.80;;
71288;SDS011;59068;52.502;9.860;2022-12-10T01:46:42;26.00;;;13.23;;
71288;SDS011;59068;52.502;9.860;2022-12-10T01:49:11;26.30;;;12.75;;
71288;SDS011;59068;52.502;9.860;2022-12-10T01:51:40;25.63;;;13.05;;
71288;SDS011;59068;52.502;9.860;2022-12-10T01:54:09;24.42;;;13.20;;
71288;SDS011;59068;52.502;9.860;2022-12-10T01:56:38;22.20;;;12.02;;
71288;SDS011;59068;52.502;9.860;2022-12-10T01:59:07;25.83;;;12.90;;
71288;SDS011;59068;52.502;9.860;2022-12-10T02:01:37;26.40;;;13.35;;
71288;SDS011;59068;52.502;9.860;2022-12-10T02:04:25;23.77;;;12.57;;
71288;SDS011;59068;52.502;9.860;2022-12-10T02:10:32;22.85;;;11.70;;
71288;SDS011;59068;52.502;9.860;2022-12-10T02:16:13;23.40;;;12.23;;
71288;SDS011;59068;52.502;9.860;2022-12-10T02:21:45;22.73;;;11.07;;
71288;SDS011;59068;52.502;9.860;2022-12-10T02:24:15;22.77;;;10.85;;
71288;SDS011;59068;52.502;9.860;2022-12-10T02:27:51;24.90;;;11.68;;
71288;SDS011;59068;52.502;9.860;2022-12-10T02:29:54;19.65;;;11.85;;
71288;SDS011;59068;52.502;9.860;2022-12-10T02:32:23;21.85;;;11.95;;
71288;SDS011;59068;52.502;9.860;2022-12-10T02:34:52;21.52;;;11.30;;
71288;SDS011;59068;52.502;9.860;2022-12-10T02:37:26;22.27;;;11.55;;
71288;SDS011;59068;52.502;9.860;2022-12-10T02:39:59;22.27;;;11.15;;
71288;SDS011;59068;52.502;9.860;2022-12-10T02:42:29;24.70;;;12.15;;
71288;SDS011;59068;52.502;9.860;2022-12-10T02:44:55;20.20;;;11.13;;
71288;SDS011;59068;52.502;9.860;2022-12-10T02:47:21;22.10;;;11.77;;
71288;SDS011;59068;52.502;9.860;2022-12-10T02:49:49;22.03;;;10.73;;
71288;SDS011;59068;52.502;9.860;2022-12-10T02:52:17;20.98;;;11.10;;
71288;SDS011;59068;52.502;9.860;2022-12-10T02:54:44;19.38;;;10.30;;
71288;SDS011;59068;52.502;9.860;2022-12-10T03:00:05;23.50;;;11.57;;
71288;SDS011;59068;52.502;9.860;2022-12-10T03:16:41;18.75;;;9.63;;
71288;SDS011;59068;52.502;9.860;2022-12-10T03:19:13;20.83;;;10.55;;
71288;SDS011;59068;52.502;9.860;2022-12-10T03:21:42;17.35;;;9.73;;
71288;SDS011;59068;52.502;9.860;2022-12-10T03:24:10;20.98;;;10.80;;
71288;SDS011;59068;52.502;9.860;2022-12-10T03:26:38;17.35;;;10.75;;
71288;SDS011;59068;52.502;9.860;2022-12-10T03:29:06;17.70;;;9.90;;
71288;SDS011;59068;52.502;9.860;2022-12-10T03:31:35;16.90;;;10.02;;
71288;SDS011;59068;52.502;9.860;2022-12-10T03:34:02;18.77;;;10.57;;
71288;SDS011;59068;52.502;9.860;2022-12-10T03:36:28;16.13;;;10.30;;
71288;SDS011;59068;52.502;9.860;2022-12-10T03:38:53;16.47;;;9.93;;
71288;SDS011;59068;52.502;9.860;2022-12-10T03:41:21;16.87;;;10.63;;
71288;SDS011;59068;52.502;9.860;2022-12-10T03:43:54;18.10;;;10.67;;
71288;SDS011;59068;52.502;9.860;2022-12-10T03:46:22;16.50;;;10.33;;
71288;SDS011;59068;52.502;9.860;2022-12-10T03:48:49;17.97;;;10.27;;
71288;SDS011;59068;52.502;9.860;2022-12-10T03:51:16;18.13;;;10.67;;
71288;SDS011;59068;52.502;9.860;2022-12-10T03:53:43;18.30;;;10.70;;
71288;SDS011;59068;52.502;9.860;2022-12-10T03:56:09;18.83;;;10.32;;
71288;SDS011;59068;52.502;9.860;2022-12-10T03:58:36;20.30;;;10.65;;
71288;SDS011;59068;52.502;9.860;2022-12-10T04:01:03;20.70;;;10.47;;
71288;SDS011;59068;52.502;9.860;2022-12-10T04:03:30;21.17;;;11.13;;
71288;SDS011;59068;52.502;9.860;2022-12-10T04:06:05;18.07;;;10.90;;
71288;SDS011;59068;52.502;9.860;2022-12-10T04:08:34;20.55;;;11.02;;
71288;SDS011;59068;52.502;9.860;2022-12-10T04:11:04;18.88;;;10.88;;
71288;SDS011;59068;52.502;9.860;2022-12-10T04:13:33;22.73;;;12.20;;
71288;SDS011;59068;52.502;9.860;2022-12-10T04:16:19;19.90;;;11.32;;
71288;SDS011;59068;52.502;9.860;2022-12-10T04:18:56;19.73;;;11.52;;
71288;SDS011;59068;52.502;9.860;2022-12-10T04:21:23;21.40;;;12.52;;
71288;SDS011;59068;52.502;9.860;2022-12-10T04:24:12;20.10;;;11.77;;
71288;SDS011;59068;52.502;9.860;2022-12-10T04:26:58;22.83;;;13.00;;
71288;SDS011;59068;52.502;9.860;2022-12-10T04:29:27;21.10;;;12.57;;
71288;SDS011;59068;52.502;9.860;2022-12-10T04:31:55;21.23;;;11.80;;
71288;SDS011;59068;52.502;9.860;2022-12-10T04:34:23;18.58;;;10.43;;
71288;SDS011;59068;52.502;9.860;2022-12-10T04:36:51;22.58;;;12.98;;
71288;SDS011;59068;52.502;9.860;2022-12-10T04:39:18;21.95;;;12.35;;
71288;SDS011;59068;52.502;9.860;2022-12-10T04:41:45;22.10;;;11.85;;
71288;SDS011;59068;52.502;9.860;2022-12-10T04:44:12;19.30;;;11.23;;
71288;SDS011;59068;52.502;9.860;2022-12-10T04:46:38;18.85;;;11.43;;
71288;SDS011;59068;52.502;9.860;2022-12-10T04:49:05;16.90;;;10.67;;
71288;SDS011;59068;52.502;9.860;2022-12-10T04:51:32;19.52;;;11.80;;
71288;SDS011;59068;52.502;9.860;2022-12-10T04:53:59;21.63;;;11.90;;
71288;SDS011;59068;52.502;9.860;2022-12-10T04:56:25;19.27;;;11.13;;
71288;SDS011;59068;52.502;9.860;2022-12-10T04:58:51;21.10;;;11.73;;
71288;SDS011;59068;52.502;9.860;2022-12-10T05:01:17;19.83;;;11.87;;
71288;SDS011;59068;52.502;9.860;2022-12-10T05:03:45;20.15;;;11.45;;
71288;SDS011;59068;52.502;9.860;2022-12-10T05:06:11;22.25;;;13.57;;
71288;SDS011;59068;52.502;9.860;2022-12-10T05:08:39;21.02;;;12.38;;
71288;SDS011;59068;52.502;9.860;2022-12-10T05:11:09;19.35;;;11.95;;
71288;SDS011;59068;52.502;9.860;2022-12-10T05:13:38;23.50;;;12.10;;
71288;SDS011;59068;52.502;9.860;2022-12-10T05:16:05;23.02;;;12.02;;
71288;SDS011;59068;52.502;9.860;2022-12-10T05:18:33;20.05;;;11.85;;
71288;SDS011;59068;52.502;9.860;2022-12-10T05:21:00;21.08;;;12.27;;
71288;SDS011;59068;52.502;9.860;2022-12-10T05:23:28;22.90;;;12.75;;
71288;SDS011;59068;52.502;9.860;2022-12-10T05:26:13;19.60;;;11.27;;
71288;SDS011;59068;52.502;9.860;2022-12-10T05:28:50;20.83;;;11.48;;
71288;SDS011;59068;52.502;9.860;2022-12-10T05:31:19;22.50;;;12.52;;
71288;SDS011;59068;52.502;9.860;2022-12-10T05:33:48;19.83;;;11.73;;
71288;SDS011;59068;52.502;9.860;2022-12-10T05:36:15;18.55;;;10.98;;
71288;SDS011;59068;52.502;9.860;2022-12-10T05:38:43;20.42;;;11.13;;
71288;SDS011;59068;52.502;9.860;2022-12-10T05:41:11;20.45;;;11.18;;
71288;SDS011;59068;52.502;9.860;2022-12-10T05:43:40;20.20;;;10.55;;
71288;SDS011;59068;52.502;9.860;2022-12-10T05:46:06;14.80;;;9.43;;
71288;SDS011;59068;52.502;9.860;2022-12-10T05:48:36;19.35;;;11.52;;
71288;SDS011;59068;52.502;9.860;2022-12-10T05:51:06;17.80;;;10.70;;
71288;SDS011;59068;52.502;9.860;2022-12-10T05:53:34;19.05;;;10.30;;
71288;SDS011;59068;52.502;9.860;2022-12-10T05:56:01;18.65;;;11.15;;
71288;SDS011;59068;52.502;9.860;2022-12-10T05:58:29;18.80;;;10.77;;
71288;SDS011;59068;52.502;9.860;2022-12-10T06:00:55;16.17;;;10.40;;
71288;SDS011;59068;52.502;9.860;2022-12-10T06:03:22;17.23;;;10.73;;
71288;SDS011;59068;52.502;9.860;2022-12-10T06:05:48;14.45;;;10.27;;
71288;SDS011;59068;52.502;9.860;2022-12-10T06:08:17;16.33;;;10.00;;
71288;SDS011;59068;52.502;9.860;2022-12-10T06:10:43;18.83;;;10.88;;
71288;SDS011;59068;52.502;9.860;2022-12-10T06:13:10;18.40;;;10.43;;
71288;SDS011;59068;52.502;9.860;2022-12-10T06:15:37;17.85;;;10.80;;
71288;SDS011;59068;52.502;9.860;2022-12-10T06:18:05;17.45;;;10.23;;
71288;SDS011;59068;52.502;9.860;2022-12-10T06:20:30;17.92;;;10.82;;
71288;SDS011;59068;52.502;9.860;2022-12-10T06:22:57;15.87;;;9.73;;
71288;SDS011;59068;52.502;9.860;2022-12-10T06:25:22;16.80;;;10.10;;
71288;SDS011;59068;52.502;9.860;2022-12-10T06:27:49;12.50;;;7.70;;
71288;SDS011;59068;52.502;9.860;2022-12-10T06:30:16;13.93;;;8.68;;
71288;SDS011;59068;52.502;9.860;2022-12-10T06:32:41;17.52;;;10.32;;
71288;SDS011;59068;52.502;9.860;2022-12-10T06:35:08;16.65;;;9.60;;
71288;SDS011;59068;52.502;9.860;2022-12-10T06:37:35;17.30;;;10.18;;
71288;SDS011;59068;52.502;9.860;2022-12-10T06:40:02;18.55;;;11.02;;
71288;SDS011;59068;52.502;9.860;2022-12-10T06:42:30;21.35;;;11.70;;
71288;SDS011;59068;52.502;9.860;2022-12-10T06:44:56;26.07;;;11.80;;
71288;SDS011;59068;52.502;9.860;2022-12-10T06:47:23;65.93;;;25.67;;
71288;SDS011;59068;52.502;9.860;2022-12-10T06:49:49;38.10;;;19.33;;
71288;SDS011;59068;52.502;9.860;2022-12-10T06:52:16;25.60;;;15.13;;
71288;SDS011;59068;52.502;9.860;2022-12-10T06:54:41;21.63;;;12.53;;
71288;SDS011;59068;52.502;9.860;2022-12-10T06:57:08;18.40;;;12.03;;
71288;SDS011;59068;52.502;9.860;2022-12-10T06:59:33;19.10;;;11.40;;
71288;SDS011;59068;52.502;9.860;2022-12-10T07:01:59;18.20;;;11.27;;
71288;SDS011;59068;52.502;9.860;2022-12-10T07:04:26;19.30;;;11.95;;
71288;SDS011;59068;52.502;9.860;2022-12-10T07:06:53;18.55;;;10.80;;
71288;SDS011;59068;52.502;9.860;2022-12-10T07:09:20;21.67;;;12.60;;
71288;SDS011;59068;52.502;9.860;2022-12-10T07:11:45;19.73;;;12.60;;
71288;SDS011;59068;52.502;9.860;2022-12-10T07:14:13;21.33;;;11.77;;
71288;SDS011;59068;52.502;9.860;2022-12-10T07:16:40;18.75;;;12.30;;
71288;SDS011;59068;52.502;9.860;2022-12-10T07:19:08;17.48;;;11.45;;
71288;SDS011;59068;52.502;9.860;2022-12-10T07:21:35;16.55;;;11.15;;
71288;SDS011;59068;52.502;9.860;2022-12-10T07:24:03;19.23;;;11.25;;
71288;SDS011;59068;52.502;9.860;2022-12-10T07:26:31;19.40;;;11.73;;
71288;SDS011;59068;52.502;9.860;2022-12-10T07:29:00;15.90;;;9.88;;
71288;SDS011;59068;52.502;9.860;2022-12-10T07:31:28;15.77;;;8.88;;
71288;SDS011;59068;52.502;9.860;2022-12-10T07:33:54;17.33;;;10.88;;
71288;SDS011;59068;52.502;9.860;2022-12-10T07:36:21;16.23;;;10.48;;
71288;SDS011;59068;52.502;9.860;2022-12-10T07:38:47;17.27;;;10.50;;
71288;SDS011;59068;52.502;9.860;2022-12-10T07:41:15;18.35;;;11.32;;
71288;SDS011;59068;52.502;9.860;2022-12-10T07:43:42;16.00;;;10.00;;
71288;SDS011;59068;52.502;9.860;2022-12-10T07:46:14;14.88;;;9.35;;
71288;SDS011;59068;52.502;9.860;2022-12-10T07:48:45;14.57;;;10.38;;
71288;SDS011;59068;52.502;9.860;2022-12-10T07:51:13;14.68;;;9.63;;
71288;SDS011;59068;52.502;9.860;2022-12-10T07:53:40;16.25;;;10.65;;
71288;SDS011;59068;52.502;9.860;2022-12-10T07:56:06;14.00;;;9.95;;
71288;SDS011;59068;52.502;9.860;2022-12-10T07:58:32;16.02;;;10.48;;
71288;SDS011;59068;52.502;9.860;2022-12-10T08:00:59;13.80;;;9.27;;
71288;SDS011;59068;52.502;9.860;2022-12-10T08:03:32;17.85;;;11.15;;
71288;SDS011;59068;52.502;9.860;2022-12-10T08:06:01;15.85;;;10.95;;
71288;SDS011;59068;52.502;9.860;2022-12-10T08:08:32;16.15;;;10.52;;
71288;SDS011;59068;52.502;9.860;2022-12-10T08:11:00;15.45;;;9.98;;
71288;SDS011;59068;52.502;9.860;2022-12-10T08:13:27;16.77;;;10.70;;
71288;SDS011;59068;52.502;9.860;2022-12-10T08:15:54;14.55;;;9.18;;
71288;SDS011;59068;52.502;9.860;2022-12-10T08:18:26;16.25;;;10.45;;
71288;SDS011;59068;52.502;9.860;2022-12-10T08:20:52;16.83;;;10.68;;
71288;SDS011;59068;52.502;9.860;2022-12-10T08:23:17;17.00;;;10.73;;
71288;SDS011;59068;52.502;9.860;2022-12-10T08:25:43;18.70;;;11.60;;
71288;SDS011;59068;52.502;9.860;2022-12-10T08:28:10;18.77;;;11.43;;
71288;SDS011;59068;52.502;9.860;2022-12-10T08:30:35;20.40;;;12.20;;
71288;SDS011;59068;52.502;9.860;2022-12-10T08:33:02;22.37;;;12.97;;
71288;SDS011;59068;52.502;9.860;2022-12-10T08:35:28;22.55;;;12.48;;
71288;SDS011;59068;52.502;9.860;2022-12-10T08:37:54;20.40;;;14.20;;
71288;SDS011;59068;52.502;9.860;2022-12-10T08:40:21;23.10;;;12.90;;
71288;SDS011;59068;52.502;9.860;2022-12-10T08:42:49;21.67;;;11.95;;
71288;SDS011;59068;52.502;9.860;2022-12-10T08:45:17;22.10;;;13.23;;
71288;SDS011;59068;52.502;9.860;2022-12-10T08:47:44;21.70;;;11.93;;
71288;SDS011;59068;52.502;9.860;2022-12-10T08:50:10;25.83;;;12.70;;
71288;SDS011;59068;52.502;9.860;2022-12-10T08:52:37;21.92;;;12.80;;
71288;SDS011;59068;52.502;9.860;2022-12-10T08:55:03;23.90;;;12.85;;
71288;SDS011;59068;52.502;9.860;2022-12-10T08:57:30;18.92;;;12.18;;
71288;SDS011;59068;52.502;9.860;2022-12-10T08:59:57;20.45;;;11.57;;
71288;SDS011;59068;52.502;9.860;2022-12-10T09:02:23;19.00;;;11.52;;
71288;SDS011;59068;52.502;9.860;2022-12-10T09:04:49;18.17;;;10.77;;
71288;SDS011;59068;52.502;9.860;2022-12-10T09:07:16;19.70;;;11.23;;
71288;SDS011;59068;52.502;9.860;2022-12-10T09:09:41;18.45;;;11.15;;
71288;SDS011;59068;52.502;9.860;2022-12-10T09:12:08;18.30;;;10.77;;
71288;SDS011;59068;52.502;9.860;2022-12-10T09:14:33;19.42;;;11.75;;
71288;SDS011;59068;52.502;9.860;2022-12-10T09:17:02;18.07;;;10.23;;
71288;SDS011;59068;52.502;9.860;2022-12-10T09:19:28;18.63;;;10.57;;
71288;SDS011;59068;52.502;9.860;2022-12-10T09:21:55;19.23;;;11.07;;
71288;SDS011;59068;52.502;9.860;2022-12-10T09:24:22;19.48;;;11.52;;
71288;SDS011;59068;52.502;9.860;2022-12-10T09:26:48;18.90;;;11.18;;
71288;SDS011;59068;52.502;9.860;2022-12-10T09:29:15;18.15;;;10.95;;
71288;SDS011;59068;52.502;9.860;2022-12-10T09:31:41;16.73;;;10.43;;
71288;SDS011;59068;52.502;9.860;2022-12-10T09:34:09;15.65;;;10.43;;
71288;SDS011;59068;52.502;9.860;2022-12-10T09:36:34;21.25;;;11.98;;
71288;SDS011;59068;52.502;9.860;2022-12-10T09:39:01;17.30;;;10.63;;
71288;SDS011;59068;52.502;9.860;2022-12-10T09:52:19;18.48;;;11.20;;
71288;SDS011;59068;52.502;9.860;2022-12-10T09:54:57;17.25;;;10.57;;
71288;SDS011;59068;52.502;9.860;2022-12-10T09:57:35;16.58;;;10.75;;
71288;SDS011;59068;52.502;9.860;2022-12-10T10:00:24;16.40;;;10.52;;
71288;SDS011;59068;52.502;9.860;2022-12-10T10:03:12;19.05;;;10.85;;
71288;SDS011;59068;52.502;9.860;2022-12-10T10:05:41;16.70;;;10.18;;
71288;SDS011;59068;52.502;9.860;2022-12-10T10:11:14;17.75;;;10.35;;
71288;SDS011;59068;52.502;9.860;2022-12-10T10:13:49;17.30;;;10.35;;
71288;SDS011;59068;52.502;9.860;2022-12-10T10:16:25;14.73;;;9.97;;
71288;SDS011;59068;52.502;9.860;2022-12-10T10:19:01;19.25;;;11.35;;
71288;SDS011;59068;52.502;9.860;2022-12-10T10:21:40;14.60;;;9.10;;
71288;SDS011;59068;52.502;9.860;2022-12-10T10:24:11;17.17;;;11.30;;
71288;SDS011;59068;52.502;9.860;2022-12-10T10:26:39;17.02;;;10.02;;
71288;SDS011;59068;52.502;9.860;2022-12-10T10:29:06;16.43;;;9.23;;
71288;SDS011;59068;52.502;9.860;2022-12-10T10:31:35;17.15;;;10.25;;
71288;SDS011;59068;52.502;9.860;2022-12-10T10:34:04;16.60;;;10.23;;
71288;SDS011;59068;52.502;9.860;2022-12-10T10:36:33;16.25;;;10.10;;
71288;SDS011;59068;52.502;9.860;2022-12-10T10:41:52;17.20;;;10.15;;
71288;SDS011;59068;52.502;9.860;2022-12-10T10:44:19;18.55;;;11.52;;
71288;SDS011;59068;52.502;9.860;2022-12-10T10:46:47;18.65;;;10.80;;
71288;SDS011;59068;52.502;9.860;2022-12-10T10:51:58;19.85;;;11.23;;
71288;SDS011;59068;52.502;9.860;2022-12-10T10:57:04;18.85;;;10.90;;
71288;SDS011;59068;52.502;9.860;2022-12-10T10:59:39;17.13;;;9.10;;
71288;SDS011;59068;52.502;9.860;2022-12-10T11:05:03;20.63;;;12.07;;
71288;SDS011;59068;52.502;9.860;2022-12-10T11:07:34;19.10;;;11.38;;
71288;SDS011;59068;52.502;9.860;2022-12-10T11:10:03;21.90;;;11.85;;
71288;SDS011;59068;52.502;9.860;2022-12-10T11:12:33;20.05;;;11.63;;
71288;SDS011;59068;52.502;9.860;2022-12-10T11:15:24;21.52;;;12.00;;
71288;SDS011;59068;52.502;9.860;2022-12-10T11:21:21;21.08;;;11.35;;
71288;SDS011;59068;52.502;9.860;2022-12-10T11:23:49;21.88;;;11.38;;
71288;SDS011;59068;52.502;9.860;2022-12-10T11:38:34;19.25;;;10.75;;
71288;SDS011;59068;52.502;9.860;2022-12-10T12:01:06;15.07;;;9.95;;
71288;SDS011;59068;52.502;9.860;2022-12-10T12:10:26;15.23;;;9.82;;
71288;SDS011;59068;52.502;9.860;2022-12-10T12:21:22;15.02;;;9.52;;
71288;SDS011;59068;52.502;9.860;2022-12-10T12:26:28;18.13;;;10.25;;
71288;SDS011;59068;52.502;9.860;2022-12-10T12:35:32;18.50;;;10.73;;
71288;SDS011;59068;52.502;9.860;2022-12-10T12:44:15;16.38;;;10.75;;
71288;SDS011;59068;52.502;9.860;2022-12-10T12:46:47;16.65;;;10.82;;
71288;SDS011;59068;52.502;9.860;2022-12-10T12:54:51;15.05;;;9.90;;
71288;SDS011;59068;52.502;9.860;2022-12-10T12:58:07;16.60;;;9.88;;
71288;SDS011;59068;52.502;9.860;2022-12-10T13:00:29;18.58;;;11.13;;
71288;SDS011;59068;52.502;9.860;2022-12-10T13:05:45;19.17;;;11.07;;
71288;SDS011;59068;52.502;9.860;2022-12-10T13:10:59;19.45;;;11.48;;
71288;SDS011;59068;52.502;9.860;2022-12-10T13:27:33;24.93;;;12.70;;
71288;SDS011;59068;52.502;9.860;2022-12-10T13:35:56;19.67;;;12.07;;
71288;SDS011;59068;52.502;9.860;2022-12-10T13:38:24;22.90;;;11.83;;
71288;SDS011;59068;52.502;9.860;2022-12-10T13:41:00;17.33;;;10.73;;
71288;SDS011;59068;52.502;9.860;2022-12-10T13:43:57;21.07;;;12.50;;
71288;SDS011;59068;52.502;9.860;2022-12-10T13:46:52;18.55;;;11.43;;
71288;SDS011;59068;52.502;9.860;2022-12-10T13:49:24;20.92;;;12.55;;
71288;SDS011;59068;52.502;9.860;2022-12-10T13:52:03;17.63;;;11.55;;
71288;SDS011;59068;52.502;9.860;2022-12-10T14:00:19;17.52;;;10.18;;
71288;SDS011;59068;52.502;9.860;2022-12-10T14:03:02;19.17;;;11.68;;
71288;SDS011;59068;52.502;9.860;2022-12-10T14:08:09;16.50;;;10.95;;
71288;SDS011;59068;52.502;9.860;2022-12-10T14:10:41;54.67;;;21.53;;
71288;SDS011;59068;52.502;9.860;2022-12-10T14:13:10;75.90;;;27.07;;
71288;SDS011;59068;52.502;9.860;2022-12-10T14:15:38;71.10;;;28.97;;
71288;SDS011;59068;52.502;9.860;2022-12-10T14:18:11;61.43;;;27.80;;
71288;SDS011;59068;52.502;9.860;2022-12-10T14:20:39;41.30;;;22.23;;
71288;SDS011;59068;52.502;9.860;2022-12-10T14:23:19;25.47;;;17.63;;
71288;SDS011;59068;52.502;9.860;2022-12-10T14:31:49;20.00;;;12.27;;
71288;SDS011;59068;52.502;9.860;2022-12-10T14:34:16;19.23;;;12.93;;
71288;SDS011;59068;52.502;9.860;2022-12-10T14:36:45;20.83;;;13.50;;
71288;SDS011;59068;52.502;9.860;2022-12-10T14:39:19;22.20;;;15.33;;
71288;SDS011;59068;52.502;9.860;2022-12-10T14:41:48;24.23;;;15.33;;
71288;SDS011;59068;52.502;9.860;2022-12-10T14:44:15;22.77;;;14.67;;
71288;SDS011;59068;52.502;9.860;2022-12-10T14:46:41;24.07;;;16.07;;
71288;SDS011;59068;52.502;9.860;2022-12-10T14:49:15;25.80;;;15.43;;
71288;SDS011;59068;52.502;9.860;2022-12-10T14:52:00;23.53;;;14.37;;
71288;SDS011;59068;52.502;9.860;2022-12-10T14:54:30;24.87;;;15.73;;
71288;SDS011;59068;52.502;9.860;2022-12-10T14:57:02;23.87;;;14.97;;
71288;SDS011;59068;52.502;9.860;2022-12-10T14:59:50;23.40;;;13.17;;
71288;SDS011;59068;52.502;9.860;2022-12-10T15:02:30;19.83;;;12.30;;
71288;SDS011;59068;52.502;9.860;2022-12-10T15:04:59;18.97;;;11.90;;
71288;SDS011;59068;52.502;9.860;2022-12-10T15:07:30;19.33;;;11.57;;
71288;SDS011;59068;52.502;9.860;2022-12-10T15:10:00;17.73;;;10.77;;
71288;SDS011;59068;52.502;9.860;2022-12-10T15:15:15;23.27;;;15.43;;
71288;SDS011;59068;52.502;9.860;2022-12-10T15:18:30;24.33;;;15.30;;
71288;SDS011;59068;52.502;9.860;2022-12-10T15:20:50;20.10;;;12.27;;
71288;SDS011;59068;52.502;9.860;2022-12-10T15:31:48;16.80;;;10.80;;
71288;SDS011;59068;52.502;9.860;2022-12-10T15:34:15;19.17;;;11.77;;
71288;SDS011;59068;52.502;9.860;2022-12-10T15:36:43;19.37;;;11.93;;
71288;SDS011;59068;52.502;9.860;2022-12-10T15:39:34;17.77;;;12.13;;
71288;SDS011;59068;52.502;9.860;2022-12-10T15:42:07;17.97;;;11.50;;
71288;SDS011;59068;52.502;9.860;2022-12-10T15:44:37;18.80;;;12.20;;
71288;SDS011;59068;52.502;9.860;2022-12-10T15:47:23;17.50;;;11.75;;
71288;SDS011;59068;52.502;9.860;2022-12-10T15:49:52;19.80;;;12.53;;
71288;SDS011;59068;52.502;9.860;2022-12-10T15:52:22;18.42;;;11.90;;
71288;SDS011;59068;52.502;9.860;2022-12-10T15:54:51;26.05;;;15.85;;
71288;SDS011;59068;52.502;9.860;2022-12-10T15:57:21;19.95;;;12.80;;
71288;SDS011;59068;52.502;9.860;2022-12-10T15:59:53;23.63;;;14.23;;
71288;SDS011;59068;52.502;9.860;2022-12-10T16:08:06;19.08;;;12.35;;
71288;SDS011;59068;52.502;9.860;2022-12-10T16:10:46;18.90;;;12.32;;
71288;SDS011;59068;52.502;9.860;2022-12-10T16:13:18;20.42;;;13.48;;
71288;SDS011;59068;52.502;9.860;2022-12-10T16:15:53;21.20;;;12.82;;
71288;SDS011;59068;52.502;9.860;2022-12-10T16:18:23;23.38;;;14.20;;
71288;SDS011;59068;52.502;9.860;2022-12-10T16:20:49;23.40;;;15.82;;
71288;SDS011;59068;52.502;9.860;2022-12-10T16:23:16;21.73;;;14.47;;
71288;SDS011;59068;52.502;9.860;2022-12-10T16:25:42;27.70;;;18.00;;
71288;SDS011;59068;52.502;9.860;2022-12-10T16:28:14;23.27;;;14.55;;
71288;SDS011;59068;52.502;9.860;2022-12-10T16:30:51;19.10;;;13.60;;
71288;SDS011;59068;52.502;9.860;2022-12-10T16:33:21;22.03;;;12.77;;
71288;SDS011;59068;52.502;9.860;2022-12-10T16:35:51;20.73;;;12.77;;
71288;SDS011;59068;52.502;9.860;2022-12-10T16:38:17;21.48;;;13.27;;
71288;SDS011;59068;52.502;9.860;2022-12-10T16:40:43;21.47;;;13.70;;
71288;SDS011;59068;52.502;9.860;2022-12-10T16:43:14;20.83;;;13.45;;
71288;SDS011;59068;52.502;9.860;2022-12-10T16:45:42;24.60;;;13.90;;
71288;SDS011;59068;52.502;9.860;2022-12-10T16:48:07;24.67;;;14.82;;
71288;SDS011;59068;52.502;9.860;2022-12-10T16:50:33;21.77;;;13.10;;
71288;SDS011;59068;52.502;9.860;2022-12-10T16:53:02;23.80;;;13.68;;
71288;SDS011;59068;52.502;9.860;2022-12-10T16:55:33;21.33;;;12.45;;
71288;SDS011;59068;52.502;9.860;2022-12-10T16:57:59;21.30;;;12.55;;
71288;SDS011;59068;52.502;9.860;2022-12-10T17:00:25;21.15;;;12.75;;
71288;SDS011;59068;52.502;9.860;2022-12-10T17:02:51;22.00;;;12.88;;
71288;SDS011;59068;52.502;9.860;2022-12-10T17:07:49;24.30;;;14.67;;
71288;SDS011;59068;52.502;9.860;2022-12-10T17:10:15;22.08;;;13.65;;
71288;SDS011;59068;52.502;9.860;2022-12-10T17:12:40;19.93;;;12.77;;
71288;SDS011;59068;52.502;9.860;2022-12-10T17:15:11;23.07;;;14.63;;
71288;SDS011;59068;52.502;9.860;2022-12-10T17:17:39;24.25;;;14.98;;
71288;SDS011;59068;52.502;9.860;2022-12-10T17:20:10;25.45;;;14.05;;
71288;SDS011;59068;52.502;9.860;2022-12-10T17:22:42;20.90;;;13.05;;
71288;SDS011;59068;52.502;9.860;2022-12-10T17:25:09;21.13;;;12.23;;
71288;SDS011;59068;52.502;9.860;2022-12-10T17:27:35;21.30;;;13.55;;
71288;SDS011;59068;52.502;9.860;2022-12-10T17:30:01;20.88;;;12.27;;
71288;SDS011;59068;52.502;9.860;2022-12-10T17:32:26;19.93;;;12.97;;
71288;SDS011;59068;52.502;9.860;2022-12-10T17:34:52;20.23;;;12.07;;
71288;SDS011;59068;52.502;9.860;2022-12-10T17:37:19;23.83;;;15.00;;
71288;SDS011;59068;52.502;9.860;2022-12-10T17:39:45;24.10;;;14.68;;
71288;SDS011;59068;52.502;9.860;2022-12-10T17:42:11;23.08;;;14.73;;
71288;SDS011;59068;52.502;9.860;2022-12-10T17:44:36;21.27;;;13.43;;